createdAt,value
2022-12-01T00:01:03.987Z,16.10
2022-12-01T00:03:36.665Z,16.90
2022-12-01T00:06:11.862Z,21.00
2022-12-01T00:09:06.723Z,19.20
2022-12-01T00:11:39.931Z,20.60
2022-12-01T00:14:11.747Z,20.60
2022-12-01T00:16:44.738Z,18.80
2022-12-01T00:19:17.927Z,20.00
2022-12-01T00:21:50.261Z,19.70
2022-12-01T00:24:23.689Z,18.80
2022-12-01T00:26:55.939Z,18.80
2022-12-01T00:29:28.538Z,15.80
2022-12-01T00:32:00.797Z,16.60
2022-12-01T00:34:33.237Z,17.20
2022-12-01T00:37:05.648Z,17.00
2022-12-01T00:39:37.891Z,15.70
2022-12-01T00:42:13.278Z,17.50
2022-12-01T00:44:45.992Z,19.50
2022-12-01T00:47:18.619Z,17.30
2022-12-01T00:49:52.530Z,16.90
2022-12-01T00:52:24.839Z,19.20
2022-12-01T00:54:57.131Z,17.80
2022-12-01T00:57:29.435Z,17.60
2022-12-01T01:00:01.688Z,17.60
2022-12-01T01:02:34.099Z,17.50
2022-12-01T01:05:07.182Z,17.60
2022-12-01T01:07:39.793Z,20.80
2022-12-01T01:10:13.617Z,18.30
2022-12-01T01:12:45.889Z,17.00
2022-12-01T01:15:18.291Z,16.70
2022-12-01T01:17:50.665Z,16.90
2022-12-01T01:20:23.593Z,16.50
2022-12-01T01:22:55.863Z,17.50
2022-12-01T01:25:28.171Z,15.90
2022-12-01T01:28:00.630Z,19.90
2022-12-01T01:30:32.965Z,15.00
2022-12-01T01:33:05.299Z,16.00
2022-12-01T01:35:37.576Z,17.90
2022-12-01T01:38:09.803Z,17.10
2022-12-01T01:40:46.778Z,20.00
2022-12-01T01:43:39.066Z,17.50
2022-12-01T01:46:14.489Z,15.30
2022-12-01T01:48:51.170Z,13.30
2022-12-01T01:51:28.374Z,17.50
2022-12-01T01:54:07.430Z,16.20
2022-12-01T01:56:39.987Z,16.10
2022-12-01T01:59:13.975Z,16.90
2022-12-01T02:01:46.987Z,18.70
2022-12-01T02:04:20.579Z,17.80
2022-12-01T02:06:52.989Z,17.30
2022-12-01T02:09:26.043Z,17.50
2022-12-01T02:12:11.621Z,16.60
2022-12-01T02:15:04.360Z,17.60
2022-12-01T02:17:44.330Z,17.20
2022-12-01T02:20:43.303Z,16.50
2022-12-01T02:23:45.262Z,17.30
2022-12-01T02:26:35.055Z,17.90
2022-12-01T02:29:39.602Z,16.00
2022-12-01T02:32:20.571Z,15.60
2022-12-01T02:35:00.390Z,16.00
2022-12-01T02:37:37.592Z,17.00
2022-12-01T02:40:19.594Z,14.30
2022-12-01T02:43:02.629Z,14.50
2022-12-01T02:45:43.000Z,16.70
2022-12-01T02:48:21.169Z,14.40
2022-12-01T02:50:55.193Z,13.10
2022-12-01T02:53:27.759Z,14.80
2022-12-01T02:56:01.703Z,14.20
2022-12-01T02:58:35.411Z,15.30
2022-12-01T03:01:27.296Z,14.40
2022-12-01T03:04:24.460Z,14.30
2022-12-01T03:07:02.575Z,13.90
2022-12-01T03:09:44.788Z,14.10
2022-12-01T03:12:28.465Z,12.50
2022-12-01T03:15:10.692Z,12.40
2022-12-01T03:17:51.590Z,12.20
2022-12-01T03:20:32.759Z,14.60
2022-12-01T03:23:10.923Z,12.30
2022-12-01T03:25:46.684Z,15.40
2022-12-01T03:28:28.948Z,11.60
2022-12-01T03:31:05.235Z,14.00
2022-12-01T03:33:44.024Z,13.60
2022-12-01T03:36:21.904Z,12.40
2022-12-01T03:38:59.949Z,13.20
2022-12-01T03:41:37.326Z,12.90
2022-12-01T03:44:13.519Z,14.40
2022-12-01T03:46:53.302Z,13.30
2022-12-01T03:49:27.134Z,14.50
2022-12-01T03:52:09.005Z,14.60
2022-12-01T03:54:50.412Z,13.80
2022-12-01T03:57:28.539Z,15.10
2022-12-01T04:00:01.189Z,15.10
2022-12-01T04:02:33.966Z,15.30
2022-12-01T04:05:09.438Z,14.40
2022-12-01T04:07:42.382Z,16.80
2022-12-01T04:10:15.246Z,12.70
2022-12-01T04:12:47.524Z,15.20
2022-12-01T04:15:19.890Z,13.70
2022-12-01T04:17:52.203Z,16.00
2022-12-01T04:20:24.855Z,12.50
2022-12-01T04:22:57.056Z,14.40
2022-12-01T04:25:29.336Z,13.80
2022-12-01T04:28:01.552Z,16.70
2022-12-01T04:30:34.219Z,16.00
2022-12-01T04:33:06.459Z,14.60
2022-12-01T04:35:38.752Z,11.80
2022-12-01T04:38:10.999Z,15.90
2022-12-01T04:40:43.367Z,13.70
2022-12-01T04:43:15.589Z,13.60
2022-12-01T04:45:47.976Z,13.50
2022-12-01T04:48:20.204Z,13.10
2022-12-01T04:50:53.154Z,11.60
2022-12-01T04:53:25.471Z,15.30
2022-12-01T04:55:57.850Z,14.70
2022-12-01T04:58:30.666Z,13.60
2022-12-01T05:01:07.025Z,14.40
2022-12-01T05:03:40.867Z,12.70
2022-12-01T05:06:15.256Z,13.50
2022-12-01T05:08:47.520Z,12.40
2022-12-01T05:11:20.454Z,11.00
2022-12-01T05:13:52.792Z,11.90
2022-12-01T05:16:27.134Z,12.70
2022-12-01T05:19:18.915Z,13.10
2022-12-01T05:21:52.138Z,16.10
2022-12-01T05:24:25.235Z,12.60
2022-12-01T05:26:57.495Z,16.90
2022-12-01T05:29:29.815Z,15.00
2022-12-01T05:32:03.290Z,16.30
2022-12-01T05:34:35.766Z,14.70
2022-12-01T05:37:08.090Z,12.50
2022-12-01T05:39:40.488Z,15.20
2022-12-01T05:42:12.720Z,15.70
2022-12-01T05:44:44.975Z,11.40
2022-12-01T05:47:17.368Z,14.20
2022-12-01T05:49:49.745Z,14.70
2022-12-01T05:52:22.251Z,15.30
2022-12-01T05:54:54.501Z,15.10
2022-12-01T05:57:26.780Z,14.70
2022-12-01T05:59:59.040Z,13.00
2022-12-01T06:02:31.336Z,13.40
2022-12-01T06:05:03.593Z,14.40
2022-12-01T06:07:36.741Z,15.30
2022-12-01T06:10:11.115Z,14.30
2022-12-01T06:12:44.960Z,13.20
2022-12-01T06:15:17.259Z,13.20
2022-12-01T06:17:49.605Z,13.50
2022-12-01T06:20:23.487Z,15.00
2022-12-01T06:22:55.899Z,16.00
2022-12-01T06:25:28.360Z,14.20
2022-12-01T06:28:01.128Z,16.10
2022-12-01T06:30:33.412Z,14.20
2022-12-01T06:33:05.787Z,13.00
2022-12-01T06:35:38.748Z,13.40
2022-12-01T06:38:10.963Z,14.40
2022-12-01T06:40:44.124Z,14.70
2022-12-01T06:43:16.508Z,14.30
2022-12-01T06:45:48.766Z,16.80
2022-12-01T06:48:21.399Z,15.70
2022-12-01T06:50:53.694Z,14.30
2022-12-01T06:53:27.508Z,14.60
2022-12-01T06:56:02.921Z,12.60
2022-12-01T06:58:35.919Z,16.00
2022-12-01T07:01:13.638Z,14.40
2022-12-01T07:03:48.224Z,15.30
2022-12-01T07:06:20.826Z,15.00
2022-12-01T07:08:53.767Z,14.90
2022-12-01T07:11:26.140Z,18.00
2022-12-01T07:13:59.748Z,16.60
2022-12-01T07:16:32.113Z,14.90
2022-12-01T07:19:04.402Z,15.00
2022-12-01T07:21:36.660Z,17.50
2022-12-01T07:24:10.219Z,16.70
2022-12-01T07:26:42.920Z,14.40
2022-12-01T07:29:15.397Z,14.60
2022-12-01T07:31:47.659Z,12.60
2022-12-01T07:34:19.900Z,12.00
2022-12-01T07:36:52.228Z,14.40
2022-12-01T07:39:24.542Z,12.90
2022-12-01T07:41:56.947Z,11.40
2022-12-01T07:44:29.181Z,12.30
2022-12-01T07:47:01.532Z,15.70
2022-12-01T07:49:34.432Z,14.70
2022-12-01T07:52:07.055Z,10.70
2022-12-01T07:54:39.372Z,13.70
2022-12-01T07:57:14.492Z,13.10
2022-12-01T07:59:47.019Z,15.50
2022-12-01T08:02:19.671Z,13.50
2022-12-01T08:04:52.544Z,13.50
2022-12-01T08:07:29.579Z,12.40
2022-12-01T08:10:02.620Z,15.20
2022-12-01T08:12:34.870Z,13.40
2022-12-01T08:15:08.419Z,13.20
2022-12-01T08:17:40.692Z,11.20
2022-12-01T08:20:14.202Z,14.10
2022-12-01T08:22:46.550Z,12.60
2022-12-01T08:25:18.978Z,13.80
2022-12-01T08:27:51.331Z,12.90
2022-12-01T08:30:23.635Z,18.50
2022-12-01T08:32:59.088Z,17.30
2022-12-01T08:35:32.893Z,15.10
2022-12-01T08:38:05.347Z,13.10
2022-12-01T08:40:37.683Z,10.00
2022-12-01T08:43:15.201Z,13.00
2022-12-01T08:45:55.463Z,12.20
2022-12-01T08:48:30.012Z,13.30
2022-12-01T08:51:08.508Z,11.60
2022-12-01T08:53:45.613Z,10.90
2022-12-01T08:56:20.352Z,11.60
2022-12-01T08:58:53.035Z,13.40
2022-12-01T09:01:26.888Z,11.40
2022-12-01T09:04:09.431Z,11.60
2022-12-01T09:06:44.507Z,13.50
2022-12-01T09:09:18.956Z,13.20
2022-12-01T09:11:52.638Z,12.80
2022-12-01T09:14:25.675Z,12.40
2022-12-01T09:16:58.334Z,10.20
2022-12-01T09:19:31.220Z,10.80
2022-12-01T09:22:04.022Z,11.90
2022-12-01T09:24:36.383Z,10.10
2022-12-01T09:27:10.606Z,10.30
2022-12-01T09:29:42.867Z,9.50
2022-12-01T09:32:15.192Z,12.30
2022-12-01T09:34:47.612Z,12.50
2022-12-01T09:37:19.924Z,10.60
2022-12-01T09:39:52.322Z,10.00
2022-12-01T09:42:30.868Z,10.80
2022-12-01T09:45:08.581Z,10.60
2022-12-01T09:47:42.812Z,11.60
2022-12-01T09:50:19.610Z,8.30
2022-12-01T09:52:54.411Z,10.70
2022-12-01T09:55:30.270Z,9.90
2022-12-01T09:58:04.767Z,12.50
2022-12-01T10:00:42.932Z,9.70
2022-12-01T10:03:26.265Z,10.70
2022-12-01T10:09:03.824Z,10.20
2022-12-01T10:11:41.284Z,12.50
2022-12-01T10:14:20.065Z,12.80
2022-12-01T10:17:14.450Z,11.00
2022-12-01T10:19:54.940Z,10.60
2022-12-01T10:22:50.695Z,10.20
2022-12-01T10:25:27.685Z,11.40
2022-12-01T10:28:15.616Z,11.10
2022-12-01T10:30:52.315Z,9.10
2022-12-01T10:33:28.151Z,11.20
2022-12-01T10:36:01.495Z,9.10
2022-12-01T10:38:37.644Z,9.90
2022-12-01T10:41:16.515Z,9.60
2022-12-01T10:43:52.103Z,8.00
2022-12-01T10:46:30.683Z,7.40
2022-12-01T10:49:09.280Z,8.70
2022-12-01T10:51:54.231Z,9.10
2022-12-01T10:54:37.378Z,10.30
2022-12-01T10:57:16.934Z,11.00
2022-12-01T11:00:01.908Z,9.10
2022-12-01T11:02:35.004Z,9.60
2022-12-01T11:05:20.352Z,7.70
2022-12-01T11:07:53.419Z,9.60
2022-12-01T11:10:27.979Z,12.10
2022-12-01T11:13:07.237Z,10.70
2022-12-01T11:15:42.389Z,9.10
2022-12-01T11:18:29.705Z,10.40
2022-12-01T11:21:14.029Z,8.80
2022-12-01T11:23:50.939Z,9.50
2022-12-01T11:26:25.770Z,8.80
2022-12-01T11:29:01.246Z,8.50
2022-12-01T11:31:42.350Z,9.60
2022-12-01T11:34:23.258Z,9.10
2022-12-01T11:36:58.401Z,10.40
2022-12-01T11:39:35.284Z,11.80
2022-12-01T11:42:20.225Z,7.70
2022-12-01T11:44:55.985Z,10.70
2022-12-01T11:47:29.164Z,8.40
2022-12-01T11:50:04.090Z,11.10
2022-12-01T11:52:46.426Z,8.60
2022-12-01T11:55:26.292Z,8.90
2022-12-01T11:58:01.223Z,9.70
2022-12-01T12:00:51.807Z,8.20
2022-12-01T12:03:34.988Z,8.20
2022-12-01T12:06:39.853Z,10.50
2022-12-01T12:09:43.356Z,8.80
2022-12-01T12:12:32.183Z,9.60
2022-12-01T12:15:13.272Z,10.30
2022-12-01T12:18:03.318Z,9.20
2022-12-01T12:20:51.000Z,9.70
2022-12-01T12:23:42.110Z,10.20
2022-12-01T12:26:23.199Z,10.20
2022-12-01T12:29:18.350Z,11.80
2022-12-01T12:32:06.107Z,11.00
2022-12-01T12:34:49.118Z,10.10
2022-12-01T12:37:30.440Z,10.20
2022-12-01T12:40:23.693Z,9.60
2022-12-01T12:43:07.448Z,9.50
2022-12-01T12:45:51.930Z,9.90
2022-12-01T12:48:36.047Z,10.50
2022-12-01T12:51:19.893Z,8.20
2022-12-01T12:54:00.254Z,12.90
2022-12-01T12:56:35.372Z,10.00
2022-12-01T12:59:20.338Z,9.60
2022-12-01T13:01:58.992Z,11.80
2022-12-01T13:04:39.818Z,11.90
2022-12-01T13:07:23.678Z,10.80
2022-12-01T13:10:00.965Z,9.90
2022-12-01T13:12:37.291Z,12.10
2022-12-01T13:15:19.749Z,11.40
2022-12-01T13:17:55.404Z,12.50
2022-12-01T13:20:30.589Z,13.40
2022-12-01T13:23:04.754Z,11.00
2022-12-01T13:25:40.593Z,13.70
2022-12-01T13:28:20.520Z,13.40
2022-12-01T13:31:08.089Z,10.70
2022-12-01T13:33:44.875Z,11.70
2022-12-01T13:39:18.790Z,10.80
2022-12-01T13:42:01.857Z,13.00
2022-12-01T13:44:39.948Z,13.20
2022-12-01T13:47:48.033Z,14.20
2022-12-01T13:50:54.627Z,12.10
2022-12-01T13:53:32.684Z,12.00
2022-12-01T13:56:39.493Z,13.80
2022-12-01T14:00:02.704Z,13.00
2022-12-01T14:02:37.196Z,12.90
2022-12-01T14:05:46.727Z,11.20
2022-12-01T14:08:23.500Z,16.80
2022-12-01T14:10:58.942Z,14.10
2022-12-01T14:13:32.633Z,10.90
2022-12-01T14:16:06.606Z,11.60
2022-12-01T14:18:41.968Z,13.90
2022-12-01T14:21:15.392Z,14.20
2022-12-01T14:24:02.285Z,13.60
2022-12-01T14:26:45.071Z,13.40
2022-12-01T14:29:38.596Z,13.80
2022-12-01T14:32:27.136Z,13.40
2022-12-01T14:35:18.799Z,10.90
2022-12-01T14:37:53.779Z,14.10
2022-12-01T14:40:31.142Z,11.00
2022-12-01T14:43:22.359Z,10.90
2022-12-01T14:46:07.451Z,14.20
2022-12-01T14:48:43.203Z,14.30
2022-12-01T14:51:24.138Z,12.60
2022-12-01T14:53:58.424Z,12.50
2022-12-01T14:56:33.748Z,11.40
2022-12-01T14:59:22.107Z,8.80
2022-12-01T15:01:58.247Z,11.80
2022-12-01T15:04:31.080Z,10.90
2022-12-01T15:07:03.620Z,11.10
2022-12-01T15:09:36.342Z,10.80
2022-12-01T15:12:25.968Z,11.90
2022-12-01T15:14:58.436Z,11.70
2022-12-01T15:17:34.685Z,13.70
2022-12-01T15:20:27.864Z,13.30
2022-12-01T15:23:01.392Z,12.30
2022-12-01T15:25:37.108Z,11.70
2022-12-01T15:28:16.619Z,12.40
2022-12-01T15:30:52.029Z,12.40
2022-12-01T15:33:28.328Z,11.80
2022-12-01T15:36:04.113Z,13.70
2022-12-01T15:38:39.411Z,11.20
2022-12-01T15:41:35.103Z,8.10
2022-12-01T15:44:19.002Z,12.30
2022-12-01T15:46:51.582Z,12.80
2022-12-01T15:49:29.999Z,11.20
2022-12-01T15:52:11.901Z,9.30
2022-12-01T15:54:50.159Z,13.30
2022-12-01T15:57:23.753Z,10.50
2022-12-01T15:59:58.615Z,12.20
2022-12-01T16:02:33.693Z,13.30
2022-12-01T16:05:16.432Z,11.10
2022-12-01T16:08:12.649Z,11.40
2022-12-01T16:10:41.840Z,10.30
2022-12-01T16:13:39.545Z,11.50
2022-12-01T16:16:43.070Z,11.80
2022-12-01T16:19:39.250Z,11.40
2022-12-01T16:22:20.686Z,12.10
2022-12-01T16:24:55.643Z,14.20
2022-12-01T16:27:29.794Z,12.90
2022-12-01T16:30:06.831Z,13.00
2022-12-01T16:32:41.744Z,14.40
2022-12-01T16:35:26.578Z,16.10
2022-12-01T16:37:59.640Z,15.10
2022-12-01T16:40:32.005Z,26.90
2022-12-01T16:43:04.322Z,18.10
2022-12-01T16:45:36.743Z,15.10
2022-12-01T16:48:09.634Z,13.70
2022-12-01T16:50:42.717Z,15.50
2022-12-01T16:53:15.283Z,11.90
2022-12-01T16:55:52.861Z,13.50
2022-12-01T16:58:25.670Z,14.00
2022-12-01T17:00:58.294Z,14.50
2022-12-01T17:03:31.489Z,15.10
2022-12-01T17:06:05.502Z,16.00
2022-12-01T17:08:37.773Z,13.40
2022-12-01T17:11:10.195Z,13.90
2022-12-01T17:13:42.620Z,13.90
2022-12-01T17:16:18.403Z,14.30
2022-12-01T17:18:51.336Z,12.90
2022-12-01T17:21:23.585Z,14.80
2022-12-01T17:23:55.914Z,16.60
2022-12-01T17:26:28.857Z,16.90
2022-12-01T17:29:02.525Z,13.80
2022-12-01T17:31:34.880Z,13.80
2022-12-01T17:34:07.144Z,11.90
2022-12-01T17:36:39.458Z,14.10
2022-12-01T17:39:11.756Z,14.40
2022-12-01T17:41:43.995Z,12.80
2022-12-01T17:44:16.276Z,12.30
2022-12-01T17:46:48.580Z,14.10
2022-12-01T17:49:20.916Z,13.30
2022-12-01T17:51:53.229Z,13.40
2022-12-01T17:54:25.663Z,13.10
2022-12-01T17:56:57.918Z,13.90
2022-12-01T17:59:30.484Z,12.80
2022-12-01T18:02:02.796Z,13.00
2022-12-01T18:04:35.592Z,12.30
2022-12-01T18:07:08.418Z,12.90
2022-12-01T18:09:41.211Z,13.20
2022-12-01T18:12:13.552Z,13.70
2022-12-01T18:14:45.865Z,15.50
2022-12-01T18:17:18.231Z,15.30
2022-12-01T18:19:50.508Z,15.00
2022-12-01T18:22:22.879Z,13.80
2022-12-01T18:24:56.483Z,14.20
2022-12-01T18:27:28.770Z,15.00
2022-12-01T18:30:01.252Z,11.20
2022-12-01T18:32:33.702Z,14.40
2022-12-01T18:35:06.771Z,14.30
2022-12-01T18:37:40.497Z,14.90
2022-12-01T18:40:14.708Z,14.00
2022-12-01T18:42:46.969Z,12.80
2022-12-01T18:45:21.515Z,14.10
2022-12-01T18:47:53.971Z,11.70
2022-12-01T18:50:26.233Z,11.60
2022-12-01T18:52:58.488Z,13.10
2022-12-01T18:55:30.963Z,13.60
2022-12-01T18:58:03.305Z,13.90
2022-12-01T19:00:35.858Z,12.90
2022-12-01T19:03:08.122Z,12.50
2022-12-01T19:05:42.695Z,12.70
2022-12-01T19:08:15.104Z,11.30
2022-12-01T19:10:47.362Z,13.60
2022-12-01T19:13:19.596Z,15.40
2022-12-01T19:15:52.007Z,13.10
2022-12-01T19:18:24.690Z,12.00
2022-12-01T19:20:57.050Z,12.70
2022-12-01T19:23:29.544Z,13.60
2022-12-01T19:26:05.091Z,15.30
2022-12-01T19:28:38.559Z,14.00
2022-12-01T19:31:12.937Z,13.90
2022-12-01T19:33:45.280Z,15.00
2022-12-01T19:36:20.274Z,12.90
2022-12-01T19:38:53.372Z,13.60
2022-12-01T19:41:26.511Z,12.60
2022-12-01T19:43:59.346Z,12.20
2022-12-01T19:46:31.766Z,14.60
2022-12-01T19:49:05.713Z,13.40
2022-12-01T19:51:40.248Z,14.10
2022-12-01T19:54:17.487Z,15.30
2022-12-01T19:56:50.269Z,14.30
2022-12-01T19:59:22.568Z,17.10
2022-12-01T20:01:54.952Z,14.40
2022-12-01T20:04:27.368Z,13.60
2022-12-01T20:06:59.738Z,17.00
2022-12-01T20:09:32.058Z,17.60
2022-12-01T20:12:04.431Z,13.20
2022-12-01T20:14:36.734Z,30.90
2022-12-01T20:17:14.352Z,15.80
2022-12-01T20:19:48.149Z,13.50
2022-12-01T20:22:20.441Z,13.70
2022-12-01T20:24:52.923Z,13.50
2022-12-01T20:27:25.501Z,15.10
2022-12-01T20:29:58.018Z,15.40
2022-12-01T20:32:31.029Z,16.40
2022-12-01T20:35:03.708Z,11.40
2022-12-01T20:37:36.262Z,15.20
2022-12-01T20:40:10.754Z,13.60
2022-12-01T20:42:43.090Z,16.50
2022-12-01T20:45:15.554Z,13.30
2022-12-01T20:47:47.754Z,14.00
2022-12-01T20:50:20.261Z,15.20
2022-12-01T20:52:52.571Z,15.30
2022-12-01T20:55:24.931Z,13.80
2022-12-01T20:57:57.241Z,15.30
2022-12-01T21:00:29.590Z,13.00
2022-12-01T21:03:02.018Z,13.50
2022-12-01T21:05:34.614Z,13.70
2022-12-01T21:08:08.283Z,14.10
2022-12-01T21:10:42.700Z,14.60
2022-12-01T21:13:38.112Z,14.90
2022-12-01T21:16:18.347Z,14.30
2022-12-01T21:18:55.524Z,15.20
2022-12-01T21:21:29.674Z,14.40
2022-12-01T21:24:14.638Z,15.80
2022-12-01T21:26:50.651Z,13.30
2022-12-01T21:29:26.130Z,15.20
2022-12-01T21:32:08.410Z,13.60
2022-12-01T21:34:43.442Z,15.00
2022-12-01T21:37:22.508Z,15.10
2022-12-01T21:39:57.695Z,13.80
2022-12-01T21:42:32.376Z,12.60
2022-12-01T21:45:07.762Z,13.60
2022-12-01T21:47:40.122Z,13.30
2022-12-01T21:50:21.203Z,13.90
2022-12-01T21:52:53.757Z,14.00
2022-12-01T21:55:37.478Z,13.80
2022-12-01T21:58:28.170Z,13.90
2022-12-01T22:01:02.109Z,14.90
2022-12-01T22:03:38.810Z,12.40
2022-12-01T22:06:31.139Z,13.40
2022-12-01T22:09:20.851Z,14.40
2022-12-01T22:11:55.880Z,14.40
2022-12-01T22:14:33.791Z,15.30
2022-12-01T22:17:20.492Z,13.40
2022-12-01T22:19:58.329Z,14.00
2022-12-01T22:22:32.810Z,14.10
2022-12-01T22:25:21.452Z,16.30
2022-12-01T22:27:54.903Z,14.10
2022-12-01T22:30:27.295Z,15.00
2022-12-01T22:33:03.833Z,14.10
2022-12-01T22:35:40.270Z,14.00
2022-12-01T22:38:28.946Z,16.00
2022-12-01T22:41:05.068Z,16.50
2022-12-01T22:43:49.337Z,16.60
2022-12-01T22:46:35.923Z,13.50
2022-12-01T22:49:19.634Z,12.70
2022-12-01T22:51:54.237Z,16.20
2022-12-01T22:54:36.281Z,16.30
2022-12-01T22:57:31.318Z,13.70
2022-12-01T23:00:17.276Z,13.90
2022-12-01T23:02:51.063Z,14.50
2022-12-01T23:05:27.383Z,14.10
2022-12-01T23:08:00.223Z,13.40
2022-12-01T23:10:35.789Z,13.80
2022-12-01T23:13:17.581Z,14.50
2022-12-01T23:15:51.879Z,16.10
2022-12-01T23:18:26.747Z,16.20
2022-12-01T23:21:00.675Z,14.50
2022-12-01T23:23:35.096Z,16.10
2022-12-01T23:26:09.643Z,15.30
2022-12-01T23:28:42.212Z,16.10
2022-12-01T23:31:14.535Z,14.20
2022-12-01T23:33:46.910Z,14.60
2022-12-01T23:36:23.983Z,14.60
2022-12-01T23:38:59.323Z,15.20
2022-12-01T23:41:37.982Z,17.80
2022-12-01T23:44:19.863Z,14.40
2022-12-01T23:46:54.916Z,15.00
2022-12-01T23:49:30.452Z,15.30
2022-12-01T23:52:04.466Z,12.90
2022-12-01T23:54:39.584Z,16.10
2022-12-01T23:57:20.831Z,14.10
2022-12-01T23:59:56.350Z,12.90
